createdAt,value
2022-09-03T01:25:04.980Z,17.00
2022-09-03T01:27:44.041Z,17.00
2022-09-03T01:30:18.575Z,17.00
2022-09-03T01:32:49.937Z,16.90
2022-09-03T01:35:22.645Z,16.90
2022-09-03T01:37:59.184Z,16.90
2022-09-03T01:40:31.669Z,16.80
2022-09-03T01:43:22.775Z,16.80
2022-09-03T01:45:55.049Z,16.80
2022-09-03T01:48:43.269Z,16.80
2022-09-03T01:51:21.068Z,16.70
2022-09-03T01:54:17.946Z,16.70
2022-09-03T01:57:12.818Z,16.70
2022-09-03T02:00:02.889Z,16.70
2022-09-03T02:02:33.415Z,16.60
2022-09-03T02:05:03.170Z,16.60
2022-09-03T02:07:33.833Z,16.60
2022-09-03T02:10:02.619Z,16.60
2022-09-03T02:12:33.235Z,16.60
2022-09-03T02:15:04.009Z,16.60
2022-09-03T02:17:33.828Z,16.50
2022-09-03T02:20:05.047Z,16.50
2022-09-03T02:22:33.264Z,16.50
2022-09-03T02:25:01.340Z,16.50
2022-09-03T02:27:32.727Z,16.50
2022-09-03T02:30:10.381Z,16.50
2022-09-03T02:32:41.037Z,16.40
2022-09-03T02:35:09.632Z,16.40
2022-09-03T02:37:40.471Z,16.40
2022-09-03T02:40:11.151Z,16.40
2022-09-03T02:42:39.628Z,16.40
2022-09-03T02:45:14.069Z,16.30
2022-09-03T02:47:47.766Z,16.20
2022-09-03T02:50:15.670Z,16.20
2022-09-03T04:15:33.013Z,15.30
2022-09-03T04:31:01.647Z,15.00
2022-09-03T04:33:32.308Z,14.90
2022-09-03T04:36:05.461Z,14.80
2022-09-03T04:38:33.656Z,14.70
2022-09-03T04:41:01.868Z,14.70
2022-09-03T04:43:31.451Z,14.80
2022-09-03T04:46:00.638Z,14.80
2022-09-03T04:48:29.276Z,14.70
2022-09-03T04:51:11.306Z,14.70
2022-09-03T04:53:40.088Z,14.70
2022-09-03T04:56:15.535Z,14.70
2022-09-03T04:58:44.350Z,14.70
2022-09-03T05:01:21.806Z,14.80
2022-09-03T05:03:51.772Z,14.80
2022-09-03T05:06:21.510Z,14.80
2022-09-03T05:08:49.723Z,14.90
2022-09-03T05:11:18.760Z,14.80
2022-09-03T05:13:48.671Z,14.90
2022-09-03T05:16:17.097Z,14.90
2022-09-03T05:18:45.144Z,14.90
2022-09-03T05:21:13.889Z,15.00
2022-09-03T05:23:44.407Z,15.00
2022-09-03T05:26:13.310Z,15.10
2022-09-03T05:28:41.881Z,15.10
2022-09-03T05:31:10.772Z,15.10
2022-09-03T05:33:39.987Z,15.20
2022-09-03T05:36:09.021Z,15.20
2022-09-03T05:38:37.203Z,15.30
2022-09-03T05:41:07.507Z,15.40
2022-09-03T05:43:35.823Z,15.40
2022-09-03T05:46:04.405Z,15.50
2022-09-03T05:48:33.206Z,15.70
2022-09-03T05:51:02.060Z,15.80
2022-09-03T05:53:29.913Z,15.90
2022-09-03T05:55:58.190Z,16.00
2022-09-03T05:58:33.554Z,16.20
2022-09-03T06:01:01.376Z,16.30
2022-09-03T06:03:29.404Z,16.50
2022-09-03T06:05:57.534Z,16.60
2022-09-03T06:08:25.477Z,16.70
2022-09-03T06:10:58.639Z,16.80
2022-09-03T06:13:27.874Z,17.00
2022-09-03T06:15:57.604Z,17.20
2022-09-03T06:18:25.723Z,17.50
2022-09-03T06:20:56.554Z,17.70
2022-09-03T06:23:24.510Z,18.00
2022-09-03T06:26:05.153Z,18.40
2022-09-03T06:28:36.103Z,18.80
2022-09-03T06:31:05.030Z,19.10
2022-09-03T06:33:33.569Z,19.50
2022-09-03T06:36:03.881Z,19.80
2022-09-03T06:38:36.319Z,20.10
2022-09-03T06:41:05.040Z,20.30
2022-09-03T06:43:35.147Z,20.50
2022-09-03T06:46:04.008Z,20.70
2022-09-03T06:48:32.782Z,20.80
2022-09-03T06:51:01.365Z,20.90
2022-09-03T06:53:32.026Z,21.00
2022-09-03T06:56:01.717Z,21.30
2022-09-03T06:58:30.324Z,21.70
2022-09-03T07:01:03.803Z,22.10
2022-09-03T07:03:31.679Z,22.40
2022-09-03T07:06:01.505Z,22.60
2022-09-03T07:08:29.794Z,22.70
2022-09-03T07:10:57.699Z,22.80
2022-09-03T07:13:25.987Z,22.90
2022-09-03T07:16:00.291Z,23.20
2022-09-03T07:18:29.575Z,23.50
2022-09-03T07:21:01.341Z,23.90
2022-09-03T07:23:30.125Z,24.00
2022-09-03T07:25:59.094Z,24.00
2022-09-03T07:28:27.052Z,24.10
2022-09-03T07:30:55.515Z,24.30
2022-09-03T07:33:23.359Z,24.60
2022-09-03T07:35:52.884Z,24.90
2022-09-03T07:38:20.747Z,25.00
2022-09-03T07:40:48.531Z,24.90
2022-09-03T07:43:16.837Z,24.70
2022-09-03T07:45:51.724Z,24.60
2022-09-03T07:48:19.642Z,24.80
2022-09-03T07:50:48.184Z,25.00
2022-09-03T07:53:20.415Z,25.20
2022-09-03T07:55:49.328Z,25.50
2022-09-03T08:05:11.522Z,26.00
2022-09-03T08:07:39.570Z,26.50
2022-09-03T08:10:13.810Z,26.60
2022-09-03T08:12:44.030Z,26.80
2022-09-03T08:15:15.237Z,27.00
2022-09-03T08:17:45.020Z,27.00
2022-09-03T08:20:13.011Z,27.10
2022-09-03T08:22:43.271Z,27.30
2022-09-03T08:25:13.865Z,27.40
2022-09-03T08:27:44.825Z,27.40
2022-09-03T08:30:15.316Z,27.50
2022-09-03T08:32:44.376Z,27.50
2022-09-03T08:35:14.015Z,27.50
2022-09-03T08:37:41.986Z,27.40
2022-09-03T08:40:22.144Z,27.40
2022-09-03T08:42:56.538Z,27.30
2022-09-03T08:45:25.128Z,27.00
2022-09-03T08:48:13.707Z,26.60
2022-09-03T08:51:02.611Z,26.30
2022-09-03T08:54:22.611Z,26.10
2022-09-03T09:00:51.305Z,25.80
2022-09-03T09:03:34.666Z,25.80
2022-09-03T09:06:11.124Z,25.70
2022-09-03T09:08:42.172Z,25.90
2022-09-03T09:11:19.972Z,26.00
2022-09-03T09:13:59.290Z,26.10
2022-09-03T09:16:35.104Z,26.20
2022-09-03T09:19:11.588Z,26.30
2022-09-03T09:21:57.236Z,26.60
2022-09-03T09:24:32.484Z,27.10
2022-09-03T09:27:04.678Z,27.30
2022-09-03T09:29:38.091Z,27.30
2022-09-03T09:32:16.386Z,27.40
2022-09-03T09:34:51.834Z,27.60
2022-09-03T09:37:27.955Z,27.90
2022-09-03T09:39:59.438Z,28.30
2022-09-03T09:42:29.991Z,28.50
2022-09-03T09:45:02.583Z,28.50
2022-09-03T09:47:38.588Z,28.60
2022-09-03T09:50:26.199Z,28.50
2022-09-03T09:53:04.292Z,28.50
2022-09-03T09:55:32.800Z,28.20
2022-09-03T09:58:14.407Z,27.80
2022-09-03T10:00:45.721Z,27.60
2022-09-03T10:03:15.449Z,27.50
2022-09-03T10:05:44.386Z,27.60
2022-09-03T10:08:22.163Z,27.80
2022-09-03T10:11:09.151Z,28.10
2022-09-03T10:13:50.166Z,28.40
2022-09-03T10:16:55.109Z,29.00
2022-09-03T10:19:40.700Z,29.20
2022-09-03T10:28:41.499Z,30.00
2022-09-03T10:31:50.876Z,30.00
2022-09-03T10:35:05.562Z,30.00
2022-09-03T10:37:45.962Z,30.00
2022-09-03T10:40:31.067Z,30.00
2022-09-03T10:43:53.715Z,30.20
2022-09-03T10:46:30.266Z,29.90
2022-09-03T10:49:14.990Z,29.80
2022-09-03T10:52:06.906Z,29.90
2022-09-03T10:55:01.306Z,29.80
2022-09-03T10:57:42.032Z,29.70
2022-09-03T11:00:16.007Z,29.60
2022-09-03T11:03:10.033Z,29.90
2022-09-03T11:05:49.583Z,30.40
2022-09-03T11:08:29.743Z,30.80
2022-09-03T11:11:12.753Z,30.80
2022-09-03T11:13:45.663Z,30.60
2022-09-03T11:16:24.380Z,30.40
2022-09-03T11:18:56.265Z,30.30
2022-09-03T11:21:28.457Z,30.20
2022-09-03T11:24:04.684Z,30.20
2022-09-03T11:26:37.909Z,29.90
2022-09-03T11:29:12.000Z,29.80
2022-09-03T11:32:00.088Z,29.80
2022-09-03T11:34:31.784Z,29.60
2022-09-03T11:37:08.121Z,29.50
2022-09-03T11:39:37.143Z,29.60
2022-09-03T11:42:12.535Z,29.60
2022-09-03T11:44:45.895Z,29.60
2022-09-03T11:47:23.507Z,29.50
2022-09-03T11:49:52.067Z,29.50
2022-09-03T11:52:32.280Z,29.50
2022-09-03T11:55:01.028Z,29.60
2022-09-03T11:57:31.756Z,29.70
2022-09-03T12:00:12.201Z,29.50
2022-09-03T12:02:45.459Z,29.30
2022-09-03T12:05:22.304Z,29.20
2022-09-03T12:08:04.147Z,29.20
2022-09-03T12:13:57.007Z,29.50
2022-09-03T12:16:48.731Z,29.50
2022-09-03T12:19:20.200Z,29.60
2022-09-03T12:21:49.416Z,29.70
2022-09-03T12:24:17.834Z,29.70
2022-09-03T12:26:45.674Z,29.80
2022-09-03T12:29:27.597Z,29.90
2022-09-03T12:32:14.578Z,29.90
2022-09-03T12:34:42.451Z,29.90
2022-09-03T12:38:04.236Z,29.80
2022-09-03T12:40:17.165Z,29.70
2022-09-03T12:42:45.086Z,29.50
2022-09-03T12:45:16.406Z,29.40
2022-09-03T12:47:45.106Z,29.30
2022-09-03T12:50:19.741Z,29.20
2022-09-03T12:52:49.001Z,29.10
2022-09-03T12:55:22.442Z,29.00
2022-09-03T12:57:56.778Z,28.90
2022-09-03T13:00:26.448Z,28.90
2022-09-03T13:02:56.778Z,28.80
2022-09-03T13:05:28.416Z,28.70
2022-09-03T13:07:58.296Z,28.60
2022-09-03T13:10:27.515Z,28.60
2022-09-03T13:12:59.871Z,28.40
2022-09-03T13:15:29.473Z,28.30
2022-09-03T13:18:09.450Z,28.20
2022-09-03T13:20:40.703Z,28.20
2022-09-03T13:23:15.652Z,28.10
2022-09-03T13:25:49.313Z,28.10
2022-09-03T13:28:27.603Z,28.20
2022-09-03T13:30:58.979Z,28.30
2022-09-03T13:33:30.169Z,28.20
2022-09-03T13:36:01.319Z,28.20
2022-09-03T13:38:36.447Z,28.20
2022-09-03T13:41:10.769Z,28.20
2022-09-03T13:43:42.618Z,28.20
2022-09-03T13:46:13.436Z,28.00
2022-09-03T13:48:59.626Z,27.70
2022-09-03T13:51:29.791Z,27.50
2022-09-03T13:54:06.101Z,27.30
2022-09-03T13:56:37.489Z,27.10
2022-09-03T13:59:08.670Z,27.00
2022-09-03T14:01:45.975Z,27.00
2022-09-03T14:04:16.419Z,27.00
2022-09-03T14:06:47.015Z,27.00
2022-09-03T14:09:17.586Z,27.00
2022-09-03T14:11:54.287Z,27.10
2022-09-03T14:14:30.358Z,27.30
2022-09-03T14:17:01.702Z,27.40
2022-09-03T14:19:35.486Z,27.40
2022-09-03T14:22:08.036Z,27.50
2022-09-03T14:24:40.830Z,27.50
2022-09-03T14:27:08.871Z,27.50
2022-09-03T14:29:37.459Z,27.50
2022-09-03T14:32:20.199Z,27.60
2022-09-03T14:34:55.326Z,27.60
2022-09-03T14:37:32.314Z,27.50
2022-09-03T14:40:05.956Z,27.50
2022-09-03T14:42:44.710Z,27.50
2022-09-03T14:45:27.172Z,27.30
2022-09-03T14:48:15.709Z,27.10
2022-09-03T14:50:54.979Z,27.00
2022-09-03T14:53:29.567Z,26.90
2022-09-03T14:56:10.983Z,26.90
2022-09-03T14:58:52.044Z,27.00
2022-09-03T15:01:23.130Z,27.00
2022-09-03T15:04:05.897Z,27.10
2022-09-03T15:06:40.811Z,27.20
2022-09-03T15:09:23.463Z,27.20
2022-09-03T16:22:36.243Z,26.60
2022-09-03T16:25:08.611Z,26.50
2022-09-03T16:27:38.815Z,26.50
2022-09-03T16:30:10.200Z,26.40
2022-09-03T16:32:46.206Z,26.40
2022-09-03T16:35:19.669Z,26.30
2022-09-03T16:37:52.531Z,26.20
2022-09-03T16:40:26.680Z,26.20
2022-09-03T16:43:00.898Z,26.20
2022-09-03T16:45:33.750Z,26.20
2022-09-03T16:48:09.907Z,26.10
2022-09-03T16:50:45.979Z,26.10
2022-09-03T16:53:16.148Z,26.10
2022-09-03T16:55:57.367Z,26.20
2022-09-03T16:58:29.501Z,26.20
2022-09-03T17:01:06.797Z,26.20
2022-09-03T17:03:58.364Z,26.20
2022-09-03T17:06:32.627Z,26.20
2022-09-03T17:09:03.709Z,26.20
2022-09-03T17:11:43.416Z,26.20
2022-09-03T17:14:22.278Z,26.20
2022-09-03T17:16:56.479Z,26.10
2022-09-03T17:19:29.402Z,26.00
2022-09-03T17:22:05.680Z,25.90
2022-09-03T17:24:37.409Z,25.90
2022-09-03T17:27:29.474Z,25.80
2022-09-03T17:30:04.578Z,25.80
2022-09-03T17:32:47.877Z,25.80
2022-09-03T17:35:18.582Z,25.90
2022-09-03T17:37:52.768Z,25.90
2022-09-03T17:40:26.889Z,25.90
2022-09-03T17:42:57.371Z,25.80
2022-09-03T17:45:37.543Z,25.80
2022-09-03T17:48:12.987Z,25.80
2022-09-03T17:50:45.810Z,25.70
2022-09-03T17:53:19.882Z,25.80
2022-09-03T17:55:53.653Z,25.80
2022-09-03T17:58:24.138Z,25.70
2022-09-03T18:00:58.603Z,25.70
2022-09-03T18:03:30.144Z,25.70
2022-09-03T18:06:01.103Z,25.70
2022-09-03T18:08:32.065Z,25.60
2022-09-03T18:11:08.142Z,25.50
2022-09-03T18:13:44.194Z,25.50
2022-09-03T18:16:16.827Z,25.40
2022-09-03T18:18:47.689Z,25.40
2022-09-03T18:21:36.543Z,25.30
2022-09-03T18:24:24.303Z,25.20
2022-09-03T18:27:13.643Z,25.10
2022-09-03T18:30:02.639Z,25.00
2022-09-03T18:32:49.491Z,25.00
2022-09-03T18:35:35.280Z,24.90
2022-09-03T18:38:21.243Z,24.80
2022-09-03T18:41:11.356Z,24.80
2022-09-03T18:44:00.643Z,24.80
2022-09-03T18:48:01.115Z,24.80
2022-09-03T18:50:02.497Z,24.70
2022-09-03T18:52:50.674Z,24.70
2022-09-03T18:55:38.767Z,24.70
2022-09-03T18:58:29.540Z,24.70
2022-09-03T19:01:20.912Z,24.60
2022-09-03T19:04:13.497Z,24.50
2022-09-03T19:07:03.498Z,24.50
2022-09-03T19:09:54.382Z,24.50
2022-09-03T19:12:45.341Z,24.50
2022-09-03T19:15:49.702Z,24.50
2022-09-03T19:18:41.933Z,24.50
2022-09-03T19:21:35.246Z,24.50
2022-09-03T19:24:22.106Z,24.50
2022-09-03T19:27:37.538Z,24.50
2022-09-03T19:30:21.880Z,24.40
2022-09-03T19:33:17.095Z,24.30
2022-09-03T19:36:06.336Z,24.30
2022-09-03T19:38:57.438Z,24.30
2022-09-03T19:41:50.190Z,24.30
2022-09-03T19:44:42.815Z,24.30
2022-09-03T19:54:32.984Z,24.20
2022-09-03T19:57:20.134Z,24.00
2022-09-03T20:00:07.822Z,24.00
2022-09-03T20:02:54.463Z,23.90
2022-09-03T20:05:40.244Z,23.80
2022-09-03T20:08:26.169Z,23.70
2022-09-03T20:10:58.389Z,23.50
2022-09-03T20:13:28.265Z,23.50
2022-09-03T20:16:02.592Z,23.50
2022-09-03T20:18:55.488Z,23.40
2022-09-03T20:21:50.966Z,23.30
2022-09-03T20:30:36.980Z,23.10
2022-09-03T20:33:11.056Z,23.00
2022-09-03T20:35:45.159Z,22.90
2022-09-03T20:38:22.785Z,22.80
2022-09-03T20:40:53.792Z,22.80
2022-09-03T20:43:42.487Z,22.70
2022-09-03T20:46:19.534Z,22.70
2022-09-03T20:48:53.872Z,22.60
2022-09-03T20:51:23.463Z,22.50
2022-09-03T20:54:00.328Z,22.40
2022-09-03T20:56:31.170Z,22.30
2022-09-03T20:59:04.210Z,22.30
2022-09-03T21:01:39.044Z,22.30
2022-09-03T21:04:14.003Z,22.20
2022-09-03T21:06:43.696Z,22.10
2022-09-03T21:09:16.967Z,22.00
2022-09-03T21:11:48.998Z,21.90
2022-09-03T21:14:23.947Z,21.80
2022-09-03T21:16:57.837Z,21.70
2022-09-03T21:19:32.335Z,21.60
2022-09-03T21:22:03.268Z,21.50
2022-09-03T21:24:32.239Z,21.40
2022-09-03T21:27:02.225Z,21.30
2022-09-03T21:29:31.842Z,21.20
2022-09-03T21:32:03.530Z,21.10
2022-09-03T21:34:32.063Z,21.00
2022-09-03T21:37:00.842Z,20.80
2022-09-03T21:39:31.185Z,20.70
2022-09-03T21:42:01.430Z,20.60
2022-09-03T21:44:38.734Z,20.60
2022-09-03T21:47:10.718Z,20.60
2022-09-03T21:49:41.324Z,20.50
2022-09-03T21:52:12.116Z,20.40
2022-09-03T21:54:46.592Z,20.30
2022-09-03T21:57:22.198Z,20.20
2022-09-03T21:59:56.902Z,20.20
2022-09-03T22:02:26.669Z,20.20
2022-09-03T22:04:55.306Z,20.10
2022-09-03T22:07:26.758Z,20.00
2022-09-03T23:28:20.860Z,18.70
